Anangel Destiny — SXON — position and weather

sailwx.info

Track history (hours):
 
Tides and Currents Weather Stations Pressure Air Temp Water Temp Dewpoint Dewpoint Depression Visibility Wind Speed Wind Dir Waves Ship Positions

Anangel Destiny

Last reported at 2018-Jun-05 08:52 UTC. Time now 2018-Jun-22 13:28 UTC.
Position S 32°26' E 152°39'.
Warning: this ship's position is 17 days out of date.

Length 289 m; draft 15 m.

Type: Cargo ship. MMSI: 239612000.

Date/timePositionNaut miles runAvg speedWind from/ knotsBaromVisibWave heightAir tempDewpointWater temp
2018-Jun-05 08:52S 32°26' E 152°39'3 9.2
2018-Jun-05 08:30S 32°29' E 152°37'5 9.2
2018-Jun-05 08:00S 32°33' E 152°34'4 8.7
2018-Jun-05 07:30S 32°36' E 152°31'4 8.7
2018-Jun-05 07:00S 32°40' E 152°28'4 8.6
2018-Jun-05 06:30S 32°43' E 152°25'4 8.6
2018-Jun-05 06:00S 32°46' E 152°21'5 9.5
2018-Jun-05 05:30S 32°48' E 152°16'611.1
2018-Jun-05 05:00S 32°50' E 152°10'611.3
2018-Jun-05 04:30S 32°53' E 152°04'611.6
2018-Jun-05 04:00S 32°55' E 151°58'611.3
2018-Jun-05 03:30S 32°58' E 151°51'4 7.9
2018-Jun-05 03:00S 32°55' E 151°48'2 3.1
2018-Jun-05 02:30S 32°54' E 151°46'2 2.7
2018-Jun-05 01:57S 32°53' E 151°45'0 0.1
2018-Jun-05 01:27S 32°53' E 151°45'0 0.0
2018-Jun-05 00:57S 32°53' E 151°45'0 0.0
2018-Jun-05 00:30S 32°53' E 151°45'0 0.0
2018-Jun-04 23:57S 32°53' E 151°45'0 0.0
2018-Jun-04 23:27S 32°53' E 151°45'0 0.0
2018-Jun-04 22:57S 32°53' E 151°45'0 0.0
2018-Jun-04 22:27S 32°53' E 151°45'0 0.0
2018-Jun-04 21:57S 32°53' E 151°45'0 0.0
2018-Jun-04 21:27S 32°53' E 151°45'0 0.0
2018-Jun-04 20:54S 32°53' E 151°45'0 0.0
2018-Jun-04 20:30S 32°53' E 151°45'0 0.0
2018-Jun-04 19:57S 32°53' E 151°45'0 0.0
2018-Jun-04 19:21S 32°53' E 151°45'0 0.0
2018-Jun-04 19:00S 32°53' E 151°45'0 0.0
2018-Jun-04 18:30S 32°53' E 151°45'0 0.0
2018-Jun-04 17:57S 32°53' E 151°45'0 0.0
2018-Jun-04 17:27S 32°53' E 151°45'0 0.0
2018-Jun-04 17:00S 32°53' E 151°45'0 0.0
2018-Jun-04 16:27S 32°53' E 151°45'0 0.0
2018-Jun-04 15:57S 32°53' E 151°45'0 0.0
2018-Jun-04 15:30S 32°53' E 151°45'0 0.0
2018-Jun-04 15:00S 32°53' E 151°45'0 0.0
2018-Jun-04 14:30S 32°53' E 151°45'0 0.0
2018-Jun-04 13:57S 32°53' E 151°45'0 0.0
2018-Jun-04 13:30S 32°53' E 151°45'0 0.0
2018-Jun-04 13:00S 32°53' E 151°45'0 0.0
2018-Jun-04 12:27S 32°53' E 151°45'0 0.0
2018-Jun-04 12:00S 32°53' E 151°45'0 0.0
2018-Jun-04 11:30S 32°53' E 151°45'0 0.0
2018-Jun-04 11:00S 32°53' E 151°45'0 0.0
2018-Jun-04 10:27S 32°53' E 151°45'0 0.0
2018-Jun-04 10:00S 32°53' E 151°45'0 0.0
2018-Jun-04 09:27S 32°53' E 151°45'0 0.0
2018-Jun-04 08:57S 32°53' E 151°45'0 0.0
2018-Jun-04 08:30S 32°53' E 151°45'0 0.0
2018-Jun-04 07:57S 32°53' E 151°45'0 0.0
2018-Jun-04 07:30S 32°53' E 151°45'0 0.0
2018-Jun-04 06:57S 32°53' E 151°45'0 0.0
2018-Jun-04 06:30S 32°53' E 151°45'0 0.0
2018-Jun-04 05:54S 32°53' E 151°45'0 0.0
2018-Jun-04 05:27S 32°53' E 151°45'0 0.0
2018-Jun-04 05:00S 32°53' E 151°45'0 0.0
2018-Jun-04 04:27S 32°53' E 151°45'0 0.0
2018-Jun-04 04:00S 32°53' E 151°45'0 0.0
2018-Jun-04 03:30S 32°53' E 151°45'0 0.0
2018-Jun-04 03:00S 32°53' E 151°45'0 0.0
2018-Jun-04 02:24S 32°53' E 151°45'0 0.0
2018-Jun-04 01:57S 32°53' E 151°45'0 0.0
2018-Jun-04 01:30S 32°53' E 151°45'0 0.0
2018-Jun-04 00:57S 32°53' E 151°45'0 0.0
2018-Jun-04 00:27S 32°53' E 151°45'0 0.0
2018-Jun-03 23:57S 32°53' E 151°45'0 0.0
2018-Jun-03 23:30S 32°53' E 151°45'0 0.0
2018-Jun-03 23:01S 32°53' E 151°45'1 2.0
2018-Jun-03 22:30S 32°54' E 151°46'2 3.6
2018-Jun-03 22:00S 32°55' E 151°47'4 8.2
2018-Jun-03 21:30S 32°57' E 151°52'4 7.3
2018-Jun-03 21:01S 33°00' E 151°54'4 7.2
2018-Jun-03 20:30S 33°01' E 151°58'713.4
2018-Jun-03 20:01S 33°02' E 152°06'3 6.5
2018-Jun-03 19:30S 33°03' E 152°10'0 0.3
2018-Jun-03 19:00S 33°03' E 152°10'0 0.6
2018-Jun-03 18:30S 33°04' E 152°10'0 0.5
2018-Jun-03 18:00S 33°04' E 152°10'0 0.5
2018-Jun-03 17:30S 33°04' E 152°10'0 0.7
2018-Jun-03 17:00S 33°04' E 152°10'0 0.4
2018-Jun-03 16:30S 33°05' E 152°10'0 0.5
2018-Jun-03 16:00S 33°05' E 152°10'0 0.6
2018-Jun-03 15:30S 33°05' E 152°10'1 1.1
2018-Jun-03 14:55S 33°05' E 152°11'1 3.3
2018-Jun-03 14:30S 33°06' E 152°12'2 4.2
2018-Jun-03 14:00S 33°08' E 152°14'1 1.4
2018-Jun-03 13:29S 33°07' E 152°13'0 0.6
2018-Jun-03 12:59S 33°08' E 152°13'0 0.5
2018-Jun-03 12:31S 33°07' E 152°13'3 5.2
2018-Jun-03 12:00S 33°05' E 152°11'3 6.0
2018-Jun-03 11:31S 33°03' E 152°09'3 6.1
2018-Jun-03 11:01S 33°01' E 152°06'0 0.9
2018-Jun-03 10:28S 33°01' E 152°05'0 0.8
2018-Jun-03 09:58S 33°01' E 152°06'0 0.7
2018-Jun-03 09:28S 33°02' E 152°06'0 0.7
2018-Jun-03 08:58S 33°02' E 152°06'0 0.6
2018-Jun-03 08:28S 33°02' E 152°07'0 0.5
2018-Jun-03 07:58S 33°02' E 152°07'0 0.6
2018-Jun-03 07:28S 33°03' E 152°07'0 0.5
2018-Jun-03 06:58S 33°03' E 152°07'0 0.3
2018-Jun-03 06:28S 33°03' E 152°07'0 0.5
2018-Jun-03 06:00S 33°03' E 152°07'2 4.6
2018-Jun-03 05:30S 33°03' E 152°04'1 0.9
2018-Jun-03 04:52S 33°03' E 152°04'0 0.9
2018-Jun-03 04:31S 33°04' E 152°04'2 3.1
2018-Jun-03 04:00S 33°03' E 152°02'2 4.5
2018-Jun-03 03:31S 33°03' E 151°59'3 5.6
2018-Jun-03 03:00S 33°02' E 151°56'1 2.2
2018-Jun-03 02:31S 33°02' E 151°55'1 2.5
2018-Jun-03 02:01S 33°03' E 151°56'1 2.7
2018-Jun-03 01:30S 33°04' E 151°56'1 2.4
2018-Jun-03 01:00S 33°05' E 151°57'1 2.5
2018-Jun-03 00:30S 33°06' E 151°58'1 2.3
2018-Jun-03 00:00S 33°07' E 151°59'1 2.3
2018-Jun-02 23:30S 33°08' E 152°00'1 2.4
2018-Jun-02 23:01S 33°09' E 152°01'1 2.1
2018-Jun-02 22:30S 33°09' E 152°02'1 1.8
2018-Jun-02 22:00S 33°09' E 152°03'1 2.0
2018-Jun-02 21:30S 33°10' E 152°05'1 2.3
2018-Jun-02 20:56S 33°10' E 152°06'1 1.9
2018-Jun-02 20:30S 33°10' E 152°07'1 1.9
2018-Jun-02 20:00S 33°10' E 152°08'1 1.8
2018-Jun-02 19:30S 33°09' E 152°09'1 1.9
2018-Jun-02 19:00S 33°09' E 152°10'2 4.0
2018-Jun-02 18:31S 33°07' E 152°08'3 5.0
2018-Jun-02 18:00S 33°06' E 152°05'1 1.8
2018-Jun-02 17:30S 33°06' E 152°06'1 1.8
2018-Jun-02 17:00S 33°05' E 152°07'2 3.4
2018-Jun-02 16:30S 33°03' E 152°07'2 3.4
2018-Jun-02 16:00S 33°02' E 152°08'2 3.4
2018-Jun-02 15:30S 33°00' E 152°08'2 3.5
2018-Jun-02 15:01S 32°59' E 152°10'3 6.0
2018-Jun-02 14:30S 32°58' E 152°13'2 3.4
2018-Jun-02 14:01S 32°58' E 152°15'0 0.7
2018-Jun-02 13:30S 32°58' E 152°15'0 1.0
2018-Jun-02 13:00S 32°58' E 152°16'1 1.1
2018-Jun-02 12:31S 32°59' E 152°16'1 1.0
2018-Jun-02 12:00S 32°59' E 152°16'0 1.0
2018-Jun-02 11:30S 32°60' E 152°17'1 1.1
2018-Jun-02 11:00S 32°60' E 152°17'0 1.0
2018-Jun-02 10:30S 33°00' E 152°17'0 1.0
2018-Jun-02 10:00S 33°01' E 152°18'1 1.1
2018-Jun-02 09:30S 33°01' E 152°18'0 1.0
2018-Jun-02 09:00S 33°02' E 152°18'1 1.1
2018-Jun-02 08:30S 33°02' E 152°18'0 0.9
2018-Jun-02 08:00S 33°03' E 152°18'1 1.1
2018-Jun-02 07:30S 33°03' E 152°18'1 1.2
2018-Jun-02 07:01S 33°04' E 152°18'1 1.2
2018-Jun-02 06:31S 33°04' E 152°17'0 0.9
2018-Jun-02 06:00S 33°05' E 152°17'1 1.0
2018-Jun-02 05:30S 33°05' E 152°17'1 1.1
2018-Jun-02 05:00S 33°06' E 152°17'1 1.1
2018-Jun-02 04:30S 33°06' E 152°17'1 1.1
2018-Jun-02 04:00S 33°07' E 152°16'1 1.0
2018-Jun-02 03:30S 33°07' E 152°16'1 1.2
2018-Jun-02 03:00S 33°08' E 152°16'1 1.2
2018-Jun-02 02:30S 33°08' E 152°15'1 1.3
2018-Jun-02 02:01S 33°09' E 152°15'1 1.4
2018-Jun-02 01:30S 33°09' E 152°14'1 1.3
2018-Jun-02 01:00S 33°10' E 152°14'1 1.2
2018-Jun-02 00:29S 33°10' E 152°13'3 1.8
2018-Jun-01 22:59S 33°08' E 152°13'1 2.2
2018-Jun-01 22:30S 33°07' E 152°12'1 2.4
2018-Jun-01 22:00S 33°06' E 152°12'1 2.7
2018-Jun-01 21:30S 33°04' E 152°12'1 2.2
2018-Jun-01 21:00S 33°03' E 152°12'1 2.5
2018-Jun-01 20:30S 33°02' E 152°12'1 2.6
2018-Jun-01 20:00S 33°01' E 152°12'1 2.9
2018-Jun-01 19:30S 32°59' E 152°11'1 2.1
2018-Jun-01 19:00S 32°59' E 152°13'1 1.7
2018-Jun-01 18:30S 32°59' E 152°13'3 5.1
2018-Jun-01 18:00S 32°57' E 152°16'2 3.5
2018-Jun-01 17:30S 32°56' E 152°18'2 4.4
2018-Jun-01 17:00S 32°55' E 152°20'2 3.9
2018-Jun-01 16:30S 32°55' E 152°22'2 3.9
2018-Jun-01 16:00S 32°54' E 152°24'2 3.4
2018-Jun-01 15:30S 32°54' E 152°26'1 1.4
2018-Jun-01 15:00S 32°55' E 152°26'1 1.5
2018-Jun-01 14:30S 32°56' E 152°26'1 1.5
2018-Jun-01 14:00S 32°57' E 152°26'1 1.4
2018-Jun-01 13:30S 32°57' E 152°26'1 1.3
2018-Jun-01 13:00S 32°58' E 152°26'1 1.4
2018-Jun-01 12:30S 32°59' E 152°26'1 1.4
2018-Jun-01 12:00S 32°59' E 152°26'1 1.5
2018-Jun-01 11:31S 33°00' E 152°26'1 1.4
2018-Jun-01 11:00S 33°01' E 152°26'1 1.4
2018-Jun-01 10:30S 33°02' E 152°26'1 1.4
2018-Jun-01 10:00S 33°02' E 152°26'1 1.5
2018-Jun-01 09:30S 33°03' E 152°26'1 1.5
2018-Jun-01 09:00S 33°04' E 152°26'1 1.5
2018-Jun-01 08:30S 33°05' E 152°26'1 1.5
2018-Jun-01 08:00S 33°05' E 152°27'1 1.5
2018-Jun-01 07:31S 33°06' E 152°26'1 1.6
2018-Jun-01 07:00S 33°07' E 152°27'1 1.5
2018-Jun-01 06:30S 33°08' E 152°27'1 1.4
2018-Jun-01 06:00S 33°08' E 152°27'1 1.4
2018-Jun-01 05:28S 33°09' E 152°27'1 1.4
2018-Jun-01 04:57S 33°10' E 152°27'1 1.2
2018-Jun-01 04:31S 33°10' E 152°26'1 1.2
2018-Jun-01 03:59S 33°11' E 152°26'1 1.8
2018-Jun-01 03:27S 33°10' E 152°25'1 2.5
2018-Jun-01 02:56S 33°09' E 152°24'1 2.1
2018-Jun-01 02:30S 33°09' E 152°23'1 2.7
2018-Jun-01 02:01S 33°08' E 152°22'1 2.9
2018-Jun-01 01:31S 33°06' E 152°21'2 3.0
2018-Jun-01 01:01S 33°05' E 152°20'2 3.4
2018-Jun-01 00:31S 33°04' E 152°19'1 2.9
2018-Jun-01 00:01S 33°03' E 152°18'1 3.0
2018-May-31 23:31S 33°01' E 152°17'1 2.7
2018-May-31 23:01S 33°00' E 152°16'1 3.0
2018-May-31 22:31S 32°59' E 152°14'1 2.9
2018-May-31 22:01S 32°58' E 152°13'2 4.0
2018-May-31 21:31S 32°58' E 152°11'2 4.1
2018-May-31 21:01S 32°58' E 152°09'2 4.3
2018-May-31 20:30S 32°59' E 152°06'1 2.4
2018-May-31 20:01S 33°00' E 152°06'1 2.8
2018-May-31 19:31S 33°01' E 152°08'1 2.6
2018-May-31 19:01S 33°02' E 152°09'1 2.5
2018-May-31 18:31S 33°02' E 152°10'1 2.7
2018-May-31 18:00S 33°03' E 152°12'2 3.0
2018-May-31 17:31S 33°03' E 152°13'2 3.7
2018-May-31 17:00S 33°02' E 152°15'2 4.7
2018-May-31 16:30S 32°60' E 152°17'2 3.4
2018-May-31 16:00S 32°59' E 152°18'2 3.8
2018-May-31 15:30S 32°57' E 152°20'2 3.7
2018-May-31 15:01S 32°56' E 152°21'2 3.1
2018-May-31 14:30S 32°54' E 152°20'1 1.0
2018-May-31 14:00S 32°54' E 152°20'1 1.3
2018-May-31 13:30S 32°55' E 152°19'1 1.2
2018-May-31 13:00S 32°55' E 152°19'3 5.3
2018-May-31 12:30S 32°57' E 152°18'4 8.1
2018-May-31 12:00S 33°01' E 152°15'4 7.8
2018-May-31 11:30S 33°02' E 152°10'4 7.3
2018-May-31 11:00S 33°02' E 152°06'4 7.9
2018-May-31 10:31S 33°01' E 152°01'4 7.7
2018-May-31 10:00S 33°01' E 151°56'2 3.5
2018-May-31 09:31S 33°03' E 151°58'3 5.7
2018-May-31 09:01S 33°03' E 152°01'4 7.2
2018-May-31 08:31S 33°03' E 152°05'4 8.5
2018-May-31 08:01S 33°04' E 152°10'4 7.7
2018-May-31 07:31S 33°04' E 152°15'4 7.2
2018-May-31 07:01S 33°03' E 152°19'4 7.9
2018-May-31 06:31S 33°03' E 152°24'3 6.9
2018-May-31 06:01S 33°02' E 152°28'3 6.5
2018-May-31 05:30S 32°60' E 152°31'4 7.2
2018-May-31 05:01S 32°57' E 152°34'4 7.8
2018-May-31 04:31S 32°55' E 152°38'4 8.8
2018-May-31 04:00S 32°54' E 152°43'2 1.6
2018-May-31 02:47S 32°53' E 152°45'0 1.2
2018-May-31 02:23S 32°53' E 152°44'1 1.3
2018-May-31 01:53S 32°52' E 152°44'1 1.4
2018-May-31 00:53S 32°51' E 152°43'0 1.0
2018-May-31 00:29S 32°51' E 152°42'0 0.9
2018-May-30 23:59S 32°51' E 152°42'0 0.5
2018-May-30 23:23S 32°50' E 152°41'0 0.1
2018-May-30 22:59S 32°50' E 152°41'0 0.2
2018-May-30 22:23S 32°50' E 152°41'0 0.1
2018-May-30 21:59S 32°50' E 152°41'0 0.1
2018-May-30 21:23S 32°50' E 152°41'0 0.1
2018-May-30 19:47S 32°50' E 152°41'0 0.3
2018-May-30 19:29S 32°51' E 152°41'0 0.3
2018-May-30 18:59S 32°51' E 152°41'0 0.2
2018-May-30 17:47S 32°51' E 152°41'0 0.4
2018-May-30 17:14S 32°51' E 152°41'0 0.5
2018-May-30 16:58S 32°51' E 152°41'0 0.5
2018-May-30 16:25S 32°51' E 152°41'0 0.4
2018-May-30 15:52S 32°51' E 152°40'0 0.5
2018-May-30 15:22S 32°52' E 152°40'0 0.6
2018-May-30 14:55S 32°52' E 152°40'0 0.5
2018-May-30 14:25S 32°52' E 152°40'0 0.5
2018-May-30 13:58S 32°52' E 152°39'0 0.2
2018-May-30 13:25S 32°52' E 152°39'0 0.2
2018-May-30 12:55S 32°52' E 152°39'0 0.4
2018-May-30 12:28S 32°52' E 152°39'0 0.5
2018-May-30 12:00S 32°52' E 152°39'0 0.6
2018-May-30 11:30S 32°52' E 152°38'0 0.6
2018-May-30 10:56S 32°52' E 152°38'0 0.5
2018-May-30 10:28S 32°52' E 152°38'0 0.6
2018-May-30 09:57S 32°52' E 152°37'0 0.6
2018-May-30 09:30S 32°53' E 152°37'0 0.7
2018-May-30 08:59S 32°53' E 152°37'0 0.6
2018-May-30 08:29S 32°53' E 152°36'1 1.1
2018-May-30 07:59S 32°52' E 152°36'0 0.9
2018-May-30 07:29S 32°52' E 152°35'1 1.2
2018-May-30 06:59S 32°52' E 152°35'1 1.0
2018-May-30 06:29S 32°52' E 152°34'1 1.8
2018-May-30 06:00S 32°51' E 152°33'3 5.2
2018-May-30 05:30S 32°51' E 152°30'3 6.9
2018-May-30 05:00S 32°51' E 152°26'510.3
2018-May-30 04:30S 32°51' E 152°20'3 5.2
2018-May-30 03:58S 32°51' E 152°17'1 1.7
2018-May-30 03:28S 32°52' E 152°17'1 1.3
2018-May-30 02:58S 32°53' E 152°17'1 1.1
2018-May-30 02:28S 32°53' E 152°18'0 0.9
2018-May-30 01:58S 32°54' E 152°18'1 1.2
2018-May-30 01:28S 32°54' E 152°19'1 1.6
2018-May-30 00:58S 32°54' E 152°20'1 1.5
2018-May-30 00:28S 32°54' E 152°21'0 0.9
2018-May-29 23:58S 32°54' E 152°21'0 0.5
2018-May-29 23:28S 32°54' E 152°21'0 0.7
2018-May-29 22:58S 32°54' E 152°22'0 0.7
2018-May-29 22:28S 32°54' E 152°22'1 2.9
2018-May-29 22:00S 32°55' E 152°22'3 6.6
2018-May-29 21:30S 32°58' E 152°20'4 9.0
2018-May-29 21:00S 33°02' E 152°18'4 8.7
2018-May-29 20:30S 33°06' E 152°15'4 8.6
2018-May-29 20:00S 33°10' E 152°13'3 4.7
2018-May-29 19:25S 33°12' E 152°12'1 2.0
2018-May-29 18:58S 33°12' E 152°13'1 1.7
2018-May-29 18:25S 33°11' E 152°14'1 1.8
2018-May-29 17:49S 33°10' E 152°15'1 1.8
2018-May-29 17:28S 33°10' E 152°15'1 1.4
2018-May-29 16:58S 33°10' E 152°16'1 1.4
2018-May-29 16:28S 33°09' E 152°17'1 1.7
2018-May-29 15:50S 33°09' E 152°18'1 1.8
2018-May-29 15:28S 33°09' E 152°19'1 2.1
2018-May-29 14:58S 33°08' E 152°19'1 2.5
2018-May-29 14:30S 33°07' E 152°20'1 2.7
2018-May-29 14:00S 33°05' E 152°20'1 2.8
2018-May-29 13:30S 33°04' E 152°20'1 2.9
2018-May-29 13:00S 33°03' E 152°21'2 3.1
2018-May-29 12:30S 33°01' E 152°21'2 3.1
2018-May-29 12:00S 32°60' E 152°21'1 3.0
2018-May-29 11:30S 32°58' E 152°22'1 2.9
2018-May-29 11:00S 32°57' E 152°22'2 3.0
2018-May-29 10:30S 32°55' E 152°23'1 3.0
2018-May-29 10:00S 32°54' E 152°23'1 2.5
2018-May-29 09:28S 32°52' E 152°23'1 2.3
2018-May-29 09:01S 32°52' E 152°22'4 8.5
2018-May-29 08:31S 32°53' E 152°17'611.3
2018-May-29 08:01S 32°53' E 152°10'611.1
2018-May-29 07:31S 32°54' E 152°04'510.2
2018-May-29 07:00S 32°56' E 151°58'713.5
2018-May-29 06:30S 32°52' E 152°05'715.1
2018-May-29 06:00S 32°49' E 152°13'713.8
2018-May-29 05:30S 32°46' E 152°21'612.9
2018-May-29 05:00S 32°42' E 152°26'713.9
2018-May-29 04:31S 32°36' E 152°31'714.0
2018-May-29 04:01S 32°30' E 152°35'714.4
2018-May-29 03:31S 32°24' E 152°40'  
Track history (hours):
 
Tides and Currents Weather Stations Pressure Air Temp Water Temp Dewpoint Dewpoint Depression Visibility Wind Speed Wind Dir Waves Ship Positions

Anangel Destiny

Last reported at 2018-Jun-05 08:52 UTC. Time now 2018-Jun-22 13:28 UTC.
Position S 32°26' E 152°39'.
Warning: this ship's position is 17 days out of date.

Length 289 m; draft 15 m.

Type: Cargo ship. MMSI: 239612000.

Date/timePositionNaut miles runAvg speedWind from/ knotsBaromVisibWave heightAir tempDewpointWater temp
2018-Jun-05 08:52S 32°26' E 152°39'3 9.2
2018-Jun-05 08:30S 32°29' E 152°37'5 9.2
2018-Jun-05 08:00S 32°33' E 152°34'4 8.7
2018-Jun-05 07:30S 32°36' E 152°31'4 8.7
2018-Jun-05 07:00S 32°40' E 152°28'4 8.6
2018-Jun-05 06:30S 32°43' E 152°25'4 8.6
2018-Jun-05 06:00S 32°46' E 152°21'5 9.5
2018-Jun-05 05:30S 32°48' E 152°16'611.1
2018-Jun-05 05:00S 32°50' E 152°10'611.3
2018-Jun-05 04:30S 32°53' E 152°04'611.6
2018-Jun-05 04:00S 32°55' E 151°58'611.3
2018-Jun-05 03:30S 32°58' E 151°51'4 7.9
2018-Jun-05 03:00S 32°55' E 151°48'2 3.1
2018-Jun-05 02:30S 32°54' E 151°46'2 2.7
2018-Jun-05 01:57S 32°53' E 151°45'0 0.1
2018-Jun-05 01:27S 32°53' E 151°45'0 0.0
2018-Jun-05 00:57S 32°53' E 151°45'0 0.0
2018-Jun-05 00:30S 32°53' E 151°45'0 0.0
2018-Jun-04 23:57S 32°53' E 151°45'0 0.0
2018-Jun-04 23:27S 32°53' E 151°45'0 0.0
2018-Jun-04 22:57S 32°53' E 151°45'0 0.0
2018-Jun-04 22:27S 32°53' E 151°45'0 0.0
2018-Jun-04 21:57S 32°53' E 151°45'0 0.0
2018-Jun-04 21:27S 32°53' E 151°45'0 0.0
2018-Jun-04 20:54S 32°53' E 151°45'0 0.0
2018-Jun-04 20:30S 32°53' E 151°45'0 0.0
2018-Jun-04 19:57S 32°53' E 151°45'0 0.0
2018-Jun-04 19:21S 32°53' E 151°45'0 0.0
2018-Jun-04 19:00S 32°53' E 151°45'0 0.0
2018-Jun-04 18:30S 32°53' E 151°45'0 0.0
2018-Jun-04 17:57S 32°53' E 151°45'0 0.0
2018-Jun-04 17:27S 32°53' E 151°45'0 0.0
2018-Jun-04 17:00S 32°53' E 151°45'0 0.0
2018-Jun-04 16:27S 32°53' E 151°45'0 0.0
2018-Jun-04 15:57S 32°53' E 151°45'0 0.0
2018-Jun-04 15:30S 32°53' E 151°45'0 0.0
2018-Jun-04 15:00S 32°53' E 151°45'0 0.0
2018-Jun-04 14:30S 32°53' E 151°45'0 0.0
2018-Jun-04 13:57S 32°53' E 151°45'0 0.0
2018-Jun-04 13:30S 32°53' E 151°45'0 0.0
2018-Jun-04 13:00S 32°53' E 151°45'0 0.0
2018-Jun-04 12:27S 32°53' E 151°45'0 0.0
2018-Jun-04 12:00S 32°53' E 151°45'0 0.0
2018-Jun-04 11:30S 32°53' E 151°45'0 0.0
2018-Jun-04 11:00S 32°53' E 151°45'0 0.0
2018-Jun-04 10:27S 32°53' E 151°45'0 0.0
2018-Jun-04 10:00S 32°53' E 151°45'0 0.0
2018-Jun-04 09:27S 32°53' E 151°45'0 0.0
2018-Jun-04 08:57S 32°53' E 151°45'0 0.0
2018-Jun-04 08:30S 32°53' E 151°45'0 0.0
2018-Jun-04 07:57S 32°53' E 151°45'0 0.0
2018-Jun-04 07:30S 32°53' E 151°45'0 0.0
2018-Jun-04 06:57S 32°53' E 151°45'0 0.0
2018-Jun-04 06:30S 32°53' E 151°45'0 0.0
2018-Jun-04 05:54S 32°53' E 151°45'0 0.0
2018-Jun-04 05:27S 32°53' E 151°45'0 0.0
2018-Jun-04 05:00S 32°53' E 151°45'0 0.0
2018-Jun-04 04:27S 32°53' E 151°45'0 0.0
2018-Jun-04 04:00S 32°53' E 151°45'0 0.0
2018-Jun-04 03:30S 32°53' E 151°45'0 0.0
2018-Jun-04 03:00S 32°53' E 151°45'0 0.0
2018-Jun-04 02:24S 32°53' E 151°45'0 0.0
2018-Jun-04 01:57S 32°53' E 151°45'0 0.0
2018-Jun-04 01:30S 32°53' E 151°45'0 0.0
2018-Jun-04 00:57S 32°53' E 151°45'0 0.0
2018-Jun-04 00:27S 32°53' E 151°45'0 0.0
2018-Jun-03 23:57S 32°53' E 151°45'0 0.0
2018-Jun-03 23:30S 32°53' E 151°45'0 0.0
2018-Jun-03 23:01S 32°53' E 151°45'1 2.0
2018-Jun-03 22:30S 32°54' E 151°46'2 3.6
2018-Jun-03 22:00S 32°55' E 151°47'4 8.2
2018-Jun-03 21:30S 32°57' E 151°52'4 7.3
2018-Jun-03 21:01S 33°00' E 151°54'4 7.2
2018-Jun-03 20:30S 33°01' E 151°58'713.4
2018-Jun-03 20:01S 33°02' E 152°06'3 6.5
2018-Jun-03 19:30S 33°03' E 152°10'0 0.3
2018-Jun-03 19:00S 33°03' E 152°10'0 0.6
2018-Jun-03 18:30S 33°04' E 152°10'0 0.5
2018-Jun-03 18:00S 33°04' E 152°10'0 0.5
2018-Jun-03 17:30S 33°04' E 152°10'0 0.7
2018-Jun-03 17:00S 33°04' E 152°10'0 0.4
2018-Jun-03 16:30S 33°05' E 152°10'0 0.5
2018-Jun-03 16:00S 33°05' E 152°10'0 0.6
2018-Jun-03 15:30S 33°05' E 152°10'1 1.1
2018-Jun-03 14:55S 33°05' E 152°11'1 3.3
2018-Jun-03 14:30S 33°06' E 152°12'2 4.2
2018-Jun-03 14:00S 33°08' E 152°14'1 1.4
2018-Jun-03 13:29S 33°07' E 152°13'0 0.6
2018-Jun-03 12:59S 33°08' E 152°13'0 0.5
2018-Jun-03 12:31S 33°07' E 152°13'3 5.2
2018-Jun-03 12:00S 33°05' E 152°11'3 6.0
2018-Jun-03 11:31S 33°03' E 152°09'3 6.1
2018-Jun-03 11:01S 33°01' E 152°06'0 0.9
2018-Jun-03 10:28S 33°01' E 152°05'0 0.8
2018-Jun-03 09:58S 33°01' E 152°06'0 0.7
2018-Jun-03 09:28S 33°02' E 152°06'0 0.7
2018-Jun-03 08:58S 33°02' E 152°06'0 0.6
2018-Jun-03 08:28S 33°02' E 152°07'0 0.5
2018-Jun-03 07:58S 33°02' E 152°07'0 0.6
2018-Jun-03 07:28S 33°03' E 152°07'0 0.5
2018-Jun-03 06:58S 33°03' E 152°07'0 0.3
2018-Jun-03 06:28S 33°03' E 152°07'0 0.5
2018-Jun-03 06:00S 33°03' E 152°07'2 4.6
2018-Jun-03 05:30S 33°03' E 152°04'1 0.9
2018-Jun-03 04:52S 33°03' E 152°04'0 0.9
2018-Jun-03 04:31S 33°04' E 152°04'2 3.1
2018-Jun-03 04:00S 33°03' E 152°02'2 4.5
2018-Jun-03 03:31S 33°03' E 151°59'3 5.6
2018-Jun-03 03:00S 33°02' E 151°56'1 2.2
2018-Jun-03 02:31S 33°02' E 151°55'1 2.5
2018-Jun-03 02:01S 33°03' E 151°56'1 2.7
2018-Jun-03 01:30S 33°04' E 151°56'1 2.4
2018-Jun-03 01:00S 33°05' E 151°57'1 2.5
2018-Jun-03 00:30S 33°06' E 151°58'1 2.3
2018-Jun-03 00:00S 33°07' E 151°59'1 2.3
2018-Jun-02 23:30S 33°08' E 152°00'1 2.4
2018-Jun-02 23:01S 33°09' E 152°01'1 2.1
2018-Jun-02 22:30S 33°09' E 152°02'1 1.8
2018-Jun-02 22:00S 33°09' E 152°03'1 2.0
2018-Jun-02 21:30S 33°10' E 152°05'1 2.3
2018-Jun-02 20:56S 33°10' E 152°06'1 1.9
2018-Jun-02 20:30S 33°10' E 152°07'1 1.9
2018-Jun-02 20:00S 33°10' E 152°08'1 1.8
2018-Jun-02 19:30S 33°09' E 152°09'1 1.9
2018-Jun-02 19:00S 33°09' E 152°10'2 4.0
2018-Jun-02 18:31S 33°07' E 152°08'3 5.0
2018-Jun-02 18:00S 33°06' E 152°05'1 1.8
2018-Jun-02 17:30S 33°06' E 152°06'1 1.8
2018-Jun-02 17:00S 33°05' E 152°07'2 3.4
2018-Jun-02 16:30S 33°03' E 152°07'2 3.4
2018-Jun-02 16:00S 33°02' E 152°08'2 3.4
2018-Jun-02 15:30S 33°00' E 152°08'2 3.5
2018-Jun-02 15:01S 32°59' E 152°10'3 6.0
2018-Jun-02 14:30S 32°58' E 152°13'2 3.4
2018-Jun-02 14:01S 32°58' E 152°15'0 0.7
2018-Jun-02 13:30S 32°58' E 152°15'0 1.0
2018-Jun-02 13:00S 32°58' E 152°16'1 1.1
2018-Jun-02 12:31S 32°59' E 152°16'1 1.0
2018-Jun-02 12:00S 32°59' E 152°16'0 1.0
2018-Jun-02 11:30S 32°60' E 152°17'1 1.1
2018-Jun-02 11:00S 32°60' E 152°17'0 1.0
2018-Jun-02 10:30S 33°00' E 152°17'0 1.0
2018-Jun-02 10:00S 33°01' E 152°18'1 1.1
2018-Jun-02 09:30S 33°01' E 152°18'0 1.0
2018-Jun-02 09:00S 33°02' E 152°18'1 1.1
2018-Jun-02 08:30S 33°02' E 152°18'0 0.9
2018-Jun-02 08:00S 33°03' E 152°18'1 1.1
2018-Jun-02 07:30S 33°03' E 152°18'1 1.2
2018-Jun-02 07:01S 33°04' E 152°18'1 1.2
2018-Jun-02 06:31S 33°04' E 152°17'0 0.9
2018-Jun-02 06:00S 33°05' E 152°17'1 1.0
2018-Jun-02 05:30S 33°05' E 152°17'1 1.1
2018-Jun-02 05:00S 33°06' E 152°17'1 1.1
2018-Jun-02 04:30S 33°06' E 152°17'1 1.1
2018-Jun-02 04:00S 33°07' E 152°16'1 1.0
2018-Jun-02 03:30S 33°07' E 152°16'1 1.2
2018-Jun-02 03:00S 33°08' E 152°16'1 1.2
2018-Jun-02 02:30S 33°08' E 152°15'1 1.3
2018-Jun-02 02:01S 33°09' E 152°15'1 1.4
2018-Jun-02 01:30S 33°09' E 152°14'1 1.3
2018-Jun-02 01:00S 33°10' E 152°14'1 1.2
2018-Jun-02 00:29S 33°10' E 152°13'3 1.8
2018-Jun-01 22:59S 33°08' E 152°13'1 2.2
2018-Jun-01 22:30S 33°07' E 152°12'1 2.4
2018-Jun-01 22:00S 33°06' E 152°12'1 2.7
2018-Jun-01 21:30S 33°04' E 152°12'1 2.2
2018-Jun-01 21:00S 33°03' E 152°12'1 2.5
2018-Jun-01 20:30S 33°02' E 152°12'1 2.6
2018-Jun-01 20:00S 33°01' E 152°12'1 2.9
2018-Jun-01 19:30S 32°59' E 152°11'1 2.1
2018-Jun-01 19:00S 32°59' E 152°13'1 1.7
2018-Jun-01 18:30S 32°59' E 152°13'3 5.1
2018-Jun-01 18:00S 32°57' E 152°16'2 3.5
2018-Jun-01 17:30S 32°56' E 152°18'2 4.4
2018-Jun-01 17:00S 32°55' E 152°20'2 3.9
2018-Jun-01 16:30S 32°55' E 152°22'2 3.9
2018-Jun-01 16:00S 32°54' E 152°24'2 3.4
2018-Jun-01 15:30S 32°54' E 152°26'1 1.4
2018-Jun-01 15:00S 32°55' E 152°26'1 1.5
2018-Jun-01 14:30S 32°56' E 152°26'1 1.5
2018-Jun-01 14:00S 32°57' E 152°26'1 1.4
2018-Jun-01 13:30S 32°57' E 152°26'1 1.3
2018-Jun-01 13:00S 32°58' E 152°26'1 1.4
2018-Jun-01 12:30S 32°59' E 152°26'1 1.4
2018-Jun-01 12:00S 32°59' E 152°26'1 1.5
2018-Jun-01 11:31S 33°00' E 152°26'1 1.4
2018-Jun-01 11:00S 33°01' E 152°26'1 1.4
2018-Jun-01 10:30S 33°02' E 152°26'1 1.4
2018-Jun-01 10:00S 33°02' E 152°26'1 1.5
2018-Jun-01 09:30S 33°03' E 152°26'1 1.5
2018-Jun-01 09:00S 33°04' E 152°26'1 1.5
2018-Jun-01 08:30S 33°05' E 152°26'1 1.5
2018-Jun-01 08:00S 33°05' E 152°27'1 1.5
2018-Jun-01 07:31S 33°06' E 152°26'1 1.6
2018-Jun-01 07:00S 33°07' E 152°27'1 1.5
2018-Jun-01 06:30S 33°08' E 152°27'1 1.4
2018-Jun-01 06:00S 33°08' E 152°27'1 1.4
2018-Jun-01 05:28S 33°09' E 152°27'1 1.4
2018-Jun-01 04:57S 33°10' E 152°27'1 1.2
2018-Jun-01 04:31S 33°10' E 152°26'1 1.2
2018-Jun-01 03:59S 33°11' E 152°26'1 1.8
2018-Jun-01 03:27S 33°10' E 152°25'1 2.5
2018-Jun-01 02:56S 33°09' E 152°24'1 2.1
2018-Jun-01 02:30S 33°09' E 152°23'1 2.7
2018-Jun-01 02:01S 33°08' E 152°22'1 2.9
2018-Jun-01 01:31S 33°06' E 152°21'2 3.0
2018-Jun-01 01:01S 33°05' E 152°20'2 3.4
2018-Jun-01 00:31S 33°04' E 152°19'1 2.9
2018-Jun-01 00:01S 33°03' E 152°18'1 3.0
2018-May-31 23:31S 33°01' E 152°17'1 2.7
2018-May-31 23:01S 33°00' E 152°16'1 3.0
2018-May-31 22:31S 32°59' E 152°14'1 2.9
2018-May-31 22:01S 32°58' E 152°13'2 4.0
2018-May-31 21:31S 32°58' E 152°11'2 4.1
2018-May-31 21:01S 32°58' E 152°09'2 4.3
2018-May-31 20:30S 32°59' E 152°06'1 2.4
2018-May-31 20:01S 33°00' E 152°06'1 2.8
2018-May-31 19:31S 33°01' E 152°08'1 2.6
2018-May-31 19:01S 33°02' E 152°09'1 2.5
2018-May-31 18:31S 33°02' E 152°10'1 2.7
2018-May-31 18:00S 33°03' E 152°12'2 3.0
2018-May-31 17:31S 33°03' E 152°13'2 3.7
2018-May-31 17:00S 33°02' E 152°15'2 4.7
2018-May-31 16:30S 32°60' E 152°17'2 3.4
2018-May-31 16:00S 32°59' E 152°18'2 3.8
2018-May-31 15:30S 32°57' E 152°20'2 3.7
2018-May-31 15:01S 32°56' E 152°21'2 3.1
2018-May-31 14:30S 32°54' E 152°20'1 1.0
2018-May-31 14:00S 32°54' E 152°20'1 1.3
2018-May-31 13:30S 32°55' E 152°19'1 1.2
2018-May-31 13:00S 32°55' E 152°19'3 5.3
2018-May-31 12:30S 32°57' E 152°18'4 8.1
2018-May-31 12:00S 33°01' E 152°15'4 7.8
2018-May-31 11:30S 33°02' E 152°10'4 7.3
2018-May-31 11:00S 33°02' E 152°06'4 7.9
2018-May-31 10:31S 33°01' E 152°01'4 7.7
2018-May-31 10:00S 33°01' E 151°56'2 3.5
2018-May-31 09:31S 33°03' E 151°58'3 5.7
2018-May-31 09:01S 33°03' E 152°01'4 7.2
2018-May-31 08:31S 33°03' E 152°05'4 8.5
2018-May-31 08:01S 33°04' E 152°10'4 7.7
2018-May-31 07:31S 33°04' E 152°15'4 7.2
2018-May-31 07:01S 33°03' E 152°19'4 7.9
2018-May-31 06:31S 33°03' E 152°24'3 6.9
2018-May-31 06:01S 33°02' E 152°28'3 6.5
2018-May-31 05:30S 32°60' E 152°31'4 7.2
2018-May-31 05:01S 32°57' E 152°34'4 7.8
2018-May-31 04:31S 32°55' E 152°38'4 8.8
2018-May-31 04:00S 32°54' E 152°43'2 1.6
2018-May-31 02:47S 32°53' E 152°45'0 1.2
2018-May-31 02:23S 32°53' E 152°44'1 1.3
2018-May-31 01:53S 32°52' E 152°44'1 1.4
2018-May-31 00:53S 32°51' E 152°43'0 1.0
2018-May-31 00:29S 32°51' E 152°42'0 0.9
2018-May-30 23:59S 32°51' E 152°42'0 0.5
2018-May-30 23:23S 32°50' E 152°41'0 0.1
2018-May-30 22:59S 32°50' E 152°41'0 0.2
2018-May-30 22:23S 32°50' E 152°41'0 0.1
2018-May-30 21:59S 32°50' E 152°41'0 0.1
2018-May-30 21:23S 32°50' E 152°41'0 0.1
2018-May-30 19:47S 32°50' E 152°41'0 0.3
2018-May-30 19:29S 32°51' E 152°41'0 0.3
2018-May-30 18:59S 32°51' E 152°41'0 0.2
2018-May-30 17:47S 32°51' E 152°41'0 0.4
2018-May-30 17:14S 32°51' E 152°41'0 0.5
2018-May-30 16:58S 32°51' E 152°41'0 0.5
2018-May-30 16:25S 32°51' E 152°41'0 0.4
2018-May-30 15:52S 32°51' E 152°40'0 0.5
2018-May-30 15:22S 32°52' E 152°40'0 0.6
2018-May-30 14:55S 32°52' E 152°40'0 0.5
2018-May-30 14:25S 32°52' E 152°40'0 0.5
2018-May-30 13:58S 32°52' E 152°39'0 0.2
2018-May-30 13:25S 32°52' E 152°39'0 0.2
2018-May-30 12:55S 32°52' E 152°39'0 0.4
2018-May-30 12:28S 32°52' E 152°39'0 0.5
2018-May-30 12:00S 32°52' E 152°39'0 0.6
2018-May-30 11:30S 32°52' E 152°38'0 0.6
2018-May-30 10:56S 32°52' E 152°38'0 0.5
2018-May-30 10:28S 32°52' E 152°38'0 0.6
2018-May-30 09:57S 32°52' E 152°37'0 0.6
2018-May-30 09:30S 32°53' E 152°37'0 0.7
2018-May-30 08:59S 32°53' E 152°37'0 0.6
2018-May-30 08:29S 32°53' E 152°36'1 1.1
2018-May-30 07:59S 32°52' E 152°36'0 0.9
2018-May-30 07:29S 32°52' E 152°35'1 1.2
2018-May-30 06:59S 32°52' E 152°35'1 1.0
2018-May-30 06:29S 32°52' E 152°34'1 1.8
2018-May-30 06:00S 32°51' E 152°33'3 5.2
2018-May-30 05:30S 32°51' E 152°30'3 6.9
2018-May-30 05:00S 32°51' E 152°26'510.3
2018-May-30 04:30S 32°51' E 152°20'3 5.2
2018-May-30 03:58S 32°51' E 152°17'1 1.7
2018-May-30 03:28S 32°52' E 152°17'1 1.3
2018-May-30 02:58S 32°53' E 152°17'1 1.1
2018-May-30 02:28S 32°53' E 152°18'0 0.9
2018-May-30 01:58S 32°54' E 152°18'1 1.2
2018-May-30 01:28S 32°54' E 152°19'1 1.6
2018-May-30 00:58S 32°54' E 152°20'1 1.5
2018-May-30 00:28S 32°54' E 152°21'0 0.9
2018-May-29 23:58S 32°54' E 152°21'0 0.5
2018-May-29 23:28S 32°54' E 152°21'0 0.7
2018-May-29 22:58S 32°54' E 152°22'0 0.7
2018-May-29 22:28S 32°54' E 152°22'1 2.9
2018-May-29 22:00S 32°55' E 152°22'3 6.6
2018-May-29 21:30S 32°58' E 152°20'4 9.0
2018-May-29 21:00S 33°02' E 152°18'4 8.7
2018-May-29 20:30S 33°06' E 152°15'4 8.6
2018-May-29 20:00S 33°10' E 152°13'3 4.7
2018-May-29 19:25S 33°12' E 152°12'1 2.0
2018-May-29 18:58S 33°12' E 152°13'1 1.7
2018-May-29 18:25S 33°11' E 152°14'1 1.8
2018-May-29 17:49S 33°10' E 152°15'1 1.8
2018-May-29 17:28S 33°10' E 152°15'1 1.4
2018-May-29 16:58S 33°10' E 152°16'1 1.4
2018-May-29 16:28S 33°09' E 152°17'1 1.7
2018-May-29 15:50S 33°09' E 152°18'1 1.8
2018-May-29 15:28S 33°09' E 152°19'1 2.1
2018-May-29 14:58S 33°08' E 152°19'1 2.5
2018-May-29 14:30S 33°07' E 152°20'1 2.7
2018-May-29 14:00S 33°05' E 152°20'1 2.8
2018-May-29 13:30S 33°04' E 152°20'1 2.9
2018-May-29 13:00S 33°03' E 152°21'2 3.1
2018-May-29 12:30S 33°01' E 152°21'2 3.1
2018-May-29 12:00S 32°60' E 152°21'1 3.0
2018-May-29 11:30S 32°58' E 152°22'1 2.9
2018-May-29 11:00S 32°57' E 152°22'2 3.0
2018-May-29 10:30S 32°55' E 152°23'1 3.0
2018-May-29 10:00S 32°54' E 152°23'1 2.5
2018-May-29 09:28S 32°52' E 152°23'1 2.3
2018-May-29 09:01S 32°52' E 152°22'4 8.5
2018-May-29 08:31S 32°53' E 152°17'611.3
2018-May-29 08:01S 32°53' E 152°10'611.1
2018-May-29 07:31S 32°54' E 152°04'510.2
2018-May-29 07:00S 32°56' E 151°58'713.5
2018-May-29 06:30S 32°52' E 152°05'715.1
2018-May-29 06:00S 32°49' E 152°13'713.8
2018-May-29 05:30S 32°46' E 152°21'612.9
2018-May-29 05:00S 32°42' E 152°26'713.9
2018-May-29 04:31S 32°36' E 152°31'714.0
2018-May-29 04:01S 32°30' E 152°35'714.4
2018-May-29 03:31S 32°24' E 152°40'  

Dump ship's entire track history